Time;durP1;ratioP1;P1;durP2;ratioP2;P2;SDS_P1;SDS_P2;PMS_P1;PMS_P2;Temp;Humidity;BMP_temperature;BMP_pressure;BME280_temperature;BME280_humidity;BME280_pressure;Samples;Min_cycle;Max_cycle;Signal;HPM_P1;HPM_P2
2021/11/01 00:00:34;;;;;;;21.00;19.70;;;12.00;99.90;;;;;;4994184;28;20447;-75
2021/11/01 00:03:01;;;;;;;20.70;19.40;;;12.00;99.90;;;;;;4993691;28;20933;-75
2021/11/01 00:05:28;;;;;;;21.57;20.10;;;12.00;99.90;;;;;;4992792;28;20450;-77
2021/11/01 00:07:54;;;;;;;21.23;19.80;;;12.10;99.90;;;;;;4992309;28;20473;-75
2021/11/01 00:10:21;;;;;;;21.00;19.80;;;12.10;99.90;;;;;;4993208;28;20541;-73
2021/11/01 00:12:48;;;;;;;21.90;20.60;;;12.30;99.90;;;;;;4993807;28;20450;-74
2021/11/01 00:15:16;;;;;;;21.87;20.47;;;12.40;99.90;;;;;;4993558;28;20482;-73
2021/11/01 00:17:43;;;;;;;21.33;19.83;;;12.30;99.90;;;;;;4993527;28;20457;-74
2021/11/01 00:20:11;;;;;;;22.07;20.37;;;12.10;99.90;;;;;;4993309;28;20443;-75
2021/11/01 00:22:39;;;;;;;22.00;20.30;;;12.00;99.90;;;;;;4993194;28;20451;-75
2021/11/01 00:25:08;;;;;;;20.73;19.23;;;12.00;99.90;;;;;;4993608;28;20458;-76
2021/11/01 00:27:35;;;;;;;21.20;19.90;;;12.00;99.90;;;;;;4993627;28;20458;-76
2021/11/01 00:30:03;;;;;;;21.67;19.97;;;12.00;99.90;;;;;;4993176;28;20606;-76
2021/11/01 00:32:31;;;;;;;21.03;19.53;;;11.90;99.90;;;;;;4993007;28;20482;-75
2021/11/01 00:34:58;;;;;;;20.87;19.17;;;12.00;99.90;;;;;;4993223;28;20446;-75
2021/11/01 00:37:25;;;;;;;20.83;19.23;;;12.00;99.90;;;;;;4993267;28;20936;-76
2021/11/01 00:39:54;;;;;;;19.97;18.67;;;12.10;99.90;;;;;;4993532;28;20845;-75
2021/11/01 00:42:21;;;;;;;20.67;19.33;;;12.00;99.90;;;;;;4993161;28;20454;-76
2021/11/01 00:44:48;;;;;;;21.80;20.40;;;11.90;99.90;;;;;;4992827;28;20489;-76
2021/11/01 00:47:15;;;;;;;20.90;19.60;;;11.90;99.90;;;;;;4992014;28;20455;-75
2021/11/01 00:49:44;;;;;;;20.67;19.47;;;12.00;99.90;;;;;;4992826;28;20500;-76
2021/11/01 00:52:11;;;;;;;20.17;18.77;;;11.90;99.90;;;;;;4992599;28;20541;-76
2021/11/01 00:54:39;;;;;;;21.63;20.13;;;11.90;99.90;;;;;;4992703;28;20483;-75
2021/11/01 00:57:06;;;;;;;21.60;20.07;;;11.90;99.90;;;;;;4992327;28;20523;-75
2021/11/01 00:59:32;;;;;;;21.77;20.33;;;11.90;99.90;;;;;;4992307;28;20451;-75
2021/11/01 01:01:59;;;;;;;20.27;18.87;;;11.90;99.90;;;;;;4992181;28;21007;-75
2021/11/01 01:04:26;;;;;;;21.80;20.20;;;11.80;99.90;;;;;;4992282;28;20462;-76
2021/11/01 01:06:54;;;;;;;20.40;19.13;;;11.80;99.90;;;;;;4992109;28;20451;-75
2021/11/01 01:09:21;;;;;;;21.63;19.90;;;11.80;99.90;;;;;;4992492;28;20457;-75
2021/11/01 01:11:48;;;;;;;21.20;19.77;;;11.90;99.90;;;;;;4991977;28;20985;-75
2021/11/01 01:14:16;;;;;;;20.40;19.00;;;11.90;99.90;;;;;;4991953;28;20992;-75
2021/11/01 01:16:43;;;;;;;19.77;18.57;;;12.10;99.90;;;;;;4992053;28;21271;-76
2021/11/01 01:19:17;;;;;;;20.53;19.23;;;12.30;99.90;;;;;;4992248;28;20818;-75
2021/11/01 01:24:30;;;;;;;21.00;19.53;;;12.30;99.90;;;;;;4991952;28;20514;-75
2021/11/01 01:26:57;;;;;;;19.93;18.53;;;12.20;99.90;;;;;;4991577;28;20458;-76
2021/11/01 01:29:24;;;;;;;19.70;18.40;;;12.20;99.90;;;;;;4991613;28;20913;-75
2021/11/01 01:31:51;;;;;;;20.83;19.37;;;12.30;99.90;;;;;;4991718;28;20486;-76
2021/11/01 01:34:17;;;;;;;21.33;19.53;;;12.40;99.90;;;;;;4991502;28;20455;-75
2021/11/01 01:36:45;;;;;;;21.43;19.87;;;12.40;99.90;;;;;;4991282;28;20455;-75
2021/11/01 01:39:13;;;;;;;21.03;19.53;;;12.50;99.90;;;;;;4991371;28;20457;-75
2021/11/01 01:41:45;;;;;;;19.47;18.27;;;12.50;99.90;;;;;;4991081;28;20447;-75
2021/11/01 01:44:13;;;;;;;20.40;18.83;;;12.60;99.90;;;;;;4991362;28;20501;-74
2021/11/01 01:46:40;;;;;;;20.20;19.00;;;12.60;99.90;;;;;;4991129;28;20446;-76
2021/11/01 01:49:07;;;;;;;20.10;18.80;;;12.70;99.90;;;;;;4991781;28;20455;-76
2021/11/01 01:51:33;;;;;;;18.87;17.80;;;12.90;99.90;;;;;;4991175;28;20896;-76
2021/11/01 01:54:02;;;;;;;19.60;18.30;;;12.90;99.90;;;;;;4991405;28;20459;-77
2021/11/01 01:56:29;;;;;;;19.63;18.47;;;13.00;99.90;;;;;;4991433;28;20546;-76
2021/11/01 01:59:18;;;;;;;19.43;18.30;;;13.20;99.90;;;;;;4991138;28;20529;-75
2021/11/01 02:01:46;;;;;;;19.50;18.10;;;13.20;99.90;;;;;;4991216;28;20457;-76
2021/11/01 02:04:16;;;;;;;19.40;18.30;;;13.20;99.90;;;;;;4991088;28;20560;-75
2021/11/01 02:07:09;;;;;;;17.40;16.50;;;13.30;99.90;;;;;;4990783;28;20454;-75
2021/11/01 02:09:45;;;;;;;17.00;16.10;;;13.50;99.90;;;;;;4986816;28;20455;-75
2021/11/01 02:12:17;;;;;;;14.73;14.00;;;13.90;99.90;;;;;;4991262;28;20537;-75
2021/11/01 02:14:49;;;;;;;14.20;13.60;;;14.10;99.90;;;;;;4990868;28;20459;-74
2021/11/01 02:17:22;;;;;;;11.83;11.43;;;14.30;99.90;;;;;;4990781;28;20505;-75
2021/11/01 02:19:51;;;;;;;12.13;11.70;;;14.50;99.90;;;;;;4990693;28;20537;-74
2021/11/01 02:22:28;;;;;;;12.63;12.13;;;14.60;99.90;;;;;;4990847;28;20844;-75
2021/11/01 02:24:59;;;;;;;11.80;11.30;;;14.60;99.90;;;;;;4990793;28;20454;-75
2021/11/01 02:27:30;;;;;;;12.07;11.60;;;14.70;99.90;;;;;;4990632;28;20447;-75
2021/11/01 02:29:58;;;;;;;11.43;11.00;;;14.70;99.90;;;;;;4990807;28;20512;-76
2021/11/01 02:32:25;;;;;;;11.63;11.03;;;14.70;99.90;;;;;;4990541;28;20561;-75
2021/11/01 02:34:52;;;;;;;12.07;11.47;;;14.60;99.90;;;;;;4990171;28;20458;-75
2021/11/01 02:37:19;;;;;;;11.27;10.70;;;14.50;99.90;;;;;;4989866;28;20856;-75
2021/11/01 02:39:48;;;;;;;12.60;12.10;;;14.40;99.90;;;;;;4989633;28;20490;-76
2021/11/01 02:42:16;;;;;;;16.47;15.87;;;14.20;99.90;;;;;;4995333;28;20509;-79
2021/11/01 02:44:52;;;;;;;18.20;17.40;;;14.10;99.90;;;;;;5004493;28;20455;-78
2021/11/01 02:47:19;;;;;;;18.77;17.87;;;13.80;99.90;;;;;;4992021;28;20473;-85
2021/11/01 02:49:46;;;;;;;18.47;17.70;;;13.60;99.90;;;;;;4988479;28;20513;-85
2021/11/01 02:52:13;;;;;;;18.40;17.70;;;13.50;99.90;;;;;;4991689;28;20475;-83
2021/11/01 02:54:39;;;;;;;20.00;19.00;;;13.20;99.90;;;;;;4989498;28;20474;-84
2021/11/01 02:57:06;;;;;;;20.43;19.63;;;13.10;99.90;;;;;;4988954;28;20949;-82
2021/11/01 02:59:33;;;;;;;19.67;18.97;;;12.90;99.90;;;;;;4988877;28;20447;-82
2021/11/01 03:02:01;;;;;;;20.67;19.67;;;12.90;99.90;;;;;;4989622;28;20958;-80
2021/11/01 03:04:28;;;;;;;21.83;20.73;;;12.80;99.90;;;;;;4989624;28;20874;-79
2021/11/01 03:06:58;;;;;;;22.80;21.87;;;12.70;99.90;;;;;;4989114;28;20451;-76
2021/11/01 03:09:28;;;;;;;23.10;22.20;;;12.70;99.90;;;;;;4990203;28;20562;-75
2021/11/01 03:11:56;;;;;;;23.83;22.83;;;12.60;99.90;;;;;;4993472;28;20580;-77
2021/11/01 03:14:30;;;;;;;24.20;23.20;;;12.60;99.90;;;;;;4993724;28;20439;-79
2021/11/01 03:16:59;;;;;;;23.77;22.70;;;12.60;99.90;;;;;;4992348;28;20904;-80
2021/11/01 03:19:29;;;;;;;23.87;22.87;;;12.50;99.90;;;;;;4991154;28;20913;-79
2021/11/01 03:21:59;;;;;;;23.43;22.40;;;12.50;99.90;;;;;;4993515;28;20451;-81
2021/11/01 03:24:29;;;;;;;23.80;22.53;;;12.40;99.90;;;;;;4993165;28;20457;-80
2021/11/01 03:26:56;;;;;;;26.77;25.50;;;12.40;99.90;;;;;;4993049;28;20924;-78
2021/11/01 03:29:24;;;;;;;30.20;28.33;;;12.40;99.90;;;;;;4990608;28;20439;-75
2021/11/01 03:31:51;;;;;;;31.00;29.47;;;12.30;99.90;;;;;;4992934;28;20498;-75
2021/11/01 03:34:22;;;;;;;31.80;30.00;;;12.20;99.90;;;;;;4993261;28;20805;-74
2021/11/01 03:36:50;;;;;;;32.40;30.60;;;12.20;99.90;;;;;;4993470;28;20439;-74
2021/11/01 03:39:17;;;;;;;31.13;29.53;;;12.20;99.90;;;;;;4993435;28;20449;-75
2021/11/01 03:41:45;;;;;;;33.43;31.63;;;12.10;99.90;;;;;;4991382;28;21253;-74
2021/11/01 03:44:17;;;;;;;34.10;31.90;;;12.00;99.90;;;;;;4994253;28;20847;-74
2021/11/01 03:46:45;;;;;;;33.13;31.43;;;12.00;99.90;;;;;;4994140;28;20459;-74
2021/11/01 03:49:14;;;;;;;33.40;31.70;;;11.90;99.90;;;;;;4994009;28;20879;-75
2021/11/01 03:51:49;;;;;;;33.80;32.00;;;11.80;99.90;;;;;;4993655;28;20479;-74
2021/11/01 03:54:20;;;;;;;34.43;32.50;;;11.70;99.90;;;;;;4993785;28;20457;-75
2021/11/01 03:56:48;;;;;;;35.50;32.90;;;11.70;99.90;;;;;;4993692;28;20445;-77
2021/11/01 03:59:15;;;;;;;34.33;32.43;;;11.60;99.90;;;;;;4992350;28;20450;-78
2021/11/01 04:01:43;;;;;;;33.80;32.00;;;11.70;99.90;;;;;;4992121;28;20512;-76
2021/11/01 04:04:11;;;;;;;34.10;32.30;;;11.70;99.90;;;;;;4989735;28;20455;-76
2021/11/01 04:06:39;;;;;;;35.10;33.20;;;11.70;99.90;;;;;;4992323;28;20482;-76
2021/11/01 04:09:06;;;;;;;34.87;33.00;;;11.70;99.90;;;;;;4992263;28;20509;-76
2021/11/01 04:11:37;;;;;;;34.83;32.80;;;11.70;99.90;;;;;;4992184;28;21061;-75
2021/11/01 04:14:10;;;;;;;34.83;33.07;;;11.70;99.90;;;;;;4992010;28;20439;-75
2021/11/01 04:16:41;;;;;;;35.67;33.87;;;11.70;99.90;;;;;;4992370;28;20478;-76
2021/11/01 04:19:31;;;;;;;33.80;32.10;;;11.70;99.90;;;;;;4992399;28;20882;-76
2021/11/01 04:21:58;;;;;;;34.17;32.47;;;11.70;99.90;;;;;;4990502;28;20431;-76
2021/11/01 04:24:28;;;;;;;35.30;33.40;;;11.70;99.90;;;;;;4991966;28;20549;-76
2021/11/01 04:26:56;;;;;;;36.37;34.17;;;11.60;99.90;;;;;;4991797;28;20450;-77
2021/11/01 04:29:25;;;;;;;36.60;34.53;;;11.40;99.90;;;;;;4992161;28;20447;-76
2021/11/01 04:31:57;;;;;;;35.90;34.00;;;11.40;99.90;;;;;;4992059;28;20505;-76
2021/11/01 04:34:30;;;;;;;36.07;33.90;;;11.50;99.90;;;;;;4991884;28;20866;-76
2021/11/01 04:36:57;;;;;;;36.40;34.10;;;11.50;99.90;;;;;;4991881;28;20451;-77
2021/11/01 04:39:31;;;;;;;35.67;33.97;;;11.60;99.90;;;;;;4991687;28;20465;-76
2021/11/01 04:42:18;;;;;;;36.97;34.77;;;11.70;99.90;;;;;;4991872;28;20498;-76
2021/11/01 04:53:00;;;;;;;36.33;34.13;;;11.80;99.90;;;;;;4991226;28;20632;-77
2021/11/01 04:55:28;;;;;;;37.90;35.70;;;11.90;99.90;;;;;;4991618;28;20451;-77
2021/11/01 04:57:57;;;;;;;38.90;36.60;;;11.90;99.90;;;;;;4991521;28;20439;-75
2021/11/01 05:00:24;;;;;;;37.80;35.37;;;11.90;99.90;;;;;;4989221;28;20497;-78
2021/11/01 05:02:58;;;;;;;35.63;33.77;;;11.90;99.90;;;;;;4991848;28;20450;-79
2021/11/01 05:05:25;;;;;;;37.60;35.23;;;11.80;99.90;;;;;;4988943;28;20467;-78
2021/11/01 05:07:53;;;;;;;36.37;34.50;;;11.90;99.90;;;;;;4991619;28;20839;-79
2021/11/01 05:10:24;;;;;;;37.63;35.30;;;11.90;99.90;;;;;;4991457;28;20451;-75
2021/11/01 05:12:51;;;;;;;35.93;34.10;;;11.90;99.90;;;;;;4991711;28;20462;-75
2021/11/01 05:15:25;;;;;;;37.17;35.17;;;11.90;99.90;;;;;;4991541;28;20447;-75
2021/11/01 05:17:56;;;;;;;35.97;33.97;;;11.90;99.90;;;;;;4992234;28;20530;-75
2021/11/01 05:20:27;;;;;;;36.87;34.53;;;11.70;99.90;;;;;;4992337;28;20509;-74
2021/11/01 05:23:04;;;;;;;36.60;34.60;;;11.60;99.90;;;;;;4992085;28;20450;-75
2021/11/01 05:25:37;;;;;;;36.57;34.23;;;11.80;99.90;;;;;;4992199;28;20451;-74
2021/11/01 05:28:09;;;;;;;37.93;35.63;;;11.70;99.90;;;;;;4992016;28;20458;-75
2021/11/01 05:30:43;;;;;;;37.47;35.47;;;11.50;99.90;;;;;;4992066;28;20466;-75
2021/11/01 05:33:32;;;;;;;39.00;36.23;;;11.40;99.90;;;;;;4991315;28;20494;-75
2021/11/01 05:35:59;;;;;;;38.30;35.60;;;11.40;99.90;;;;;;4991834;28;21001;-75
2021/11/01 05:38:26;;;;;;;37.80;35.30;;;11.40;99.90;;;;;;4991788;28;20457;-75
2021/11/01 05:40:53;;;;;;;36.53;34.53;;;11.40;99.90;;;;;;4991788;28;20450;-75
2021/11/01 05:43:19;;;;;;;34.67;32.93;;;11.30;99.90;;;;;;4991957;28;20925;-74
2021/11/01 05:45:48;;;;;;;36.53;34.43;;;11.30;99.90;;;;;;4991774;28;20454;-76
2021/11/01 05:48:14;;;;;;;37.10;34.90;;;11.30;99.90;;;;;;4991910;28;20565;-75
2021/11/01 05:50:41;;;;;;;36.50;34.40;;;11.20;99.90;;;;;;4991781;28;20824;-75
2021/11/01 05:53:11;;;;;;;36.70;34.10;;;11.30;99.90;;;;;;4991698;28;20498;-74
2021/11/01 05:55:44;;;;;;;37.57;35.33;;;11.30;99.90;;;;;;4991864;28;20486;-75
2021/11/01 05:58:16;;;;;;;36.80;34.87;;;11.40;99.90;;;;;;4991858;28;20493;-75
2021/11/01 06:03:35;;;;;;;37.10;34.80;;;11.50;99.90;;;;;;4987896;28;20446;-74
2021/11/01 06:06:21;;;;;;;38.00;36.00;;;11.50;99.90;;;;;;4992034;28;20917;-73
2021/11/01 06:14:22;;;;;;;37.30;35.30;;;11.50;99.90;;;;;;4990954;28;20793;-73
2021/11/01 06:16:48;;;;;;;39.00;36.90;;;11.60;99.90;;;;;;4990219;28;20435;-73
2021/11/01 06:19:16;;;;;;;38.97;36.63;;;11.50;99.90;;;;;;4990488;28;20447;-73
2021/11/01 06:21:46;;;;;;;38.57;36.20;;;11.50;99.90;;;;;;4989837;28;20447;-72
2021/11/01 06:24:27;;;;;;;39.17;37.10;;;11.50;99.90;;;;;;4987641;28;20461;-75
2021/11/01 06:26:54;;;;;;;36.93;35.13;;;11.30;99.90;;;;;;4987601;28;20447;-75
2021/11/01 06:29:25;;;;;;;36.40;34.50;;;11.30;99.90;;;;;;4990129;28;20516;-74
2021/11/01 06:32:01;;;;;;;36.63;34.50;;;11.30;99.90;;;;;;4989690;28;20581;-75
2021/11/01 06:38:59;;;;;;;36.43;34.37;;;11.20;99.90;;;;;;4989665;28;20594;-75
2021/11/01 06:40:32;;;;;;;36.40;34.40;;;11.20;99.90;;;;;;4987902;28;20509;-73
2021/11/01 06:43:05;;;;;;;36.67;34.77;;;11.20;99.90;;;;;;4988029;28;20438;-73
2021/11/01 06:45:39;;;;;;;35.27;33.47;;;11.20;99.90;;;;;;4989595;28;20443;-75
2021/11/01 06:51:02;;;;;;;36.73;34.73;;;11.20;99.90;;;;;;4989727;28;20426;-75
2021/11/01 06:56:40;;;;;;;36.13;33.80;;;11.20;99.90;;;;;;4989408;28;20935;-75
2021/11/01 07:15:33;;;;;;;34.40;32.70;;;11.10;99.90;;;;;;4989517;28;20927;-76
2021/11/01 07:18:04;;;;;;;34.07;32.20;;;11.10;99.90;;;;;;4989362;28;20894;-76
2021/11/01 07:20:40;;;;;;;34.97;33.40;;;11.00;99.90;;;;;;4989557;28;20516;-76
2021/11/01 07:23:33;;;;;;;35.30;33.80;;;11.00;99.90;;;;;;4989444;28;20964;-76
2021/11/01 08:21:17;;;;;;;33.73;32.23;;;10.40;99.90;;;;;;4990781;28;20422;-79
2021/11/01 08:24:19;;;;;;;34.50;32.83;;;10.40;99.90;;;;;;4991823;28;20488;-77
2021/11/01 08:27:21;;;;;;;34.80;33.30;;;10.60;99.90;;;;;;4992062;28;20536;-75
2021/11/01 08:36:00;;;;;;;34.90;33.20;;;10.50;99.90;;;;;;4992291;28;20427;-78
2021/11/01 08:41:31;;;;;;;33.00;31.40;;;10.60;99.90;;;;;;4988942;28;20790;-79
2021/11/01 08:49:53;;;;;;;33.87;31.97;;;10.60;99.90;;;;;;4970946;28;20525;-80
2021/11/01 09:03:48;;;;;;;35.80;33.50;;;10.70;99.90;;;;;;4993075;28;20438;-77
2021/11/01 09:19:52;;;;;;;35.60;33.60;;;10.90;99.90;;;;;;4992266;28;20787;-79
2021/11/01 09:25:15;;;;;;;35.43;33.53;;;10.90;99.90;;;;;;4990628;28;20438;-77
2021/11/01 09:27:52;;;;;;;36.27;33.87;;;11.00;99.90;;;;;;4992792;28;20892;-78
2021/11/01 09:30:36;;;;;;;34.27;32.23;;;11.00;99.90;;;;;;4992901;28;20471;-78
2021/11/01 09:36:05;;;;;;;34.43;32.77;;;10.90;99.90;;;;;;4992848;28;20838;-79
2021/11/01 09:41:12;;;;;;;35.50;33.80;;;10.90;99.90;;;;;;4987699;28;20434;-79
2021/11/01 09:43:39;;;;;;;34.20;32.50;;;11.00;99.90;;;;;;4992584;28;20447;-80
2021/11/01 09:46:10;;;;;;;33.50;31.90;;;11.00;99.90;;;;;;4992610;28;20447;-77
2021/11/01 09:48:38;;;;;;;34.07;32.37;;;11.00;99.90;;;;;;4992420;28;20453;-78
2021/11/01 09:51:06;;;;;;;35.47;33.63;;;11.00;99.90;;;;;;4992526;28;20463;-79
2021/11/01 09:53:39;;;;;;;35.63;33.83;;;11.00;99.90;;;;;;4992306;28;20490;-78
2021/11/01 09:56:18;;;;;;;35.17;33.37;;;11.00;99.90;;;;;;4992600;28;20462;-77
2021/11/01 10:01:30;;;;;;;34.73;32.93;;;11.20;99.90;;;;;;4992145;28;20430;-78
2021/11/01 10:03:56;;;;;;;33.27;31.67;;;11.20;99.90;;;;;;4991803;28;20458;-77
2021/11/01 10:06:31;;;;;;;34.67;33.07;;;11.20;99.90;;;;;;4991942;28;20454;-79
2021/11/01 10:09:00;;;;;;;34.23;32.63;;;11.20;99.90;;;;;;4991991;28;20534;-79
2021/11/01 10:11:28;;;;;;;32.30;30.80;;;11.20;99.90;;;;;;4991850;28;20773;-78
2021/11/01 10:13:57;;;;;;;32.13;30.53;;;11.20;99.90;;;;;;4991902;28;20451;-78
2021/11/01 10:19:26;;;;;;;32.30;30.80;;;11.20;99.90;;;;;;4991759;28;20508;-78
2021/11/01 10:21:55;;;;;;;31.10;29.70;;;11.20;99.90;;;;;;4991816;28;20438;-79
2021/11/01 10:24:27;;;;;;;31.13;29.63;;;11.10;99.90;;;;;;4991817;28;20446;-77
2021/11/01 10:26:56;;;;;;;31.80;30.20;;;11.10;99.90;;;;;;4991405;28;20486;-76
2021/11/01 10:29:23;;;;;;;30.43;28.83;;;11.10;99.90;;;;;;4991408;28;20552;-76
2021/11/01 10:31:50;;;;;;;31.40;29.80;;;11.10;99.90;;;;;;4991402;28;20493;-76
2021/11/01 10:34:18;;;;;;;30.60;29.20;;;11.20;99.90;;;;;;4991645;28;20824;-76
2021/11/01 10:36:48;;;;;;;31.80;30.20;;;11.20;99.90;;;;;;4991490;28;20469;-76
2021/11/01 10:39:20;;;;;;;30.33;28.90;;;11.30;99.90;;;;;;4991612;28;20458;-76
2021/11/01 10:41:53;;;;;;;30.00;28.60;;;11.40;99.90;;;;;;4991582;28;20547;-76
2021/11/01 10:44:50;;;;;;;30.50;29.10;;;11.40;99.90;;;;;;4992039;28;21032;-77
2021/11/01 10:59:14;;;;;;;22.50;21.60;;;11.50;99.90;;;;;;4969678;28;20439;-76
2021/11/01 11:13:07;;;;;;;16.33;15.63;;;11.50;99.90;;;;;;4959637;28;20475;-76
2021/11/01 11:15:36;;;;;;;16.30;15.60;;;11.50;99.90;;;;;;4983881;28;21052;-76
2021/11/01 11:18:22;;;;;;;17.00;16.20;;;11.70;99.90;;;;;;4999557;28;20447;-76
2021/11/01 11:21:03;;;;;;;14.67;14.07;;;11.80;99.90;;;;;;4998236;28;20817;-75
2021/11/01 11:40:37;;;;;;;12.60;12.17;;;12.20;99.90;;;;;;5001037;28;20476;-75
2021/11/01 11:43:21;;;;;;;13.30;12.70;;;12.40;99.90;;;;;;5000297;28;20790;-74
2021/11/01 11:48:45;;;;;;;14.27;13.67;;;12.30;99.90;;;;;;5005422;28;20440;-74
2021/11/01 11:51:12;;;;;;;14.40;13.80;;;12.30;99.90;;;;;;5004155;28;20473;-75
2021/11/01 11:53:55;;;;;;;13.50;12.73;;;12.20;99.90;;;;;;4997042;28;20498;-74
2021/11/01 11:56:28;;;;;;;13.43;12.83;;;12.20;99.90;;;;;;4995252;28;20450;-75
2021/11/01 11:58:59;;;;;;;14.40;13.80;;;12.20;99.90;;;;;;4981132;28;20452;-75
2021/11/01 12:01:29;;;;;;;13.23;12.63;;;12.10;99.90;;;;;;4975565;28;20458;-75
2021/11/01 12:03:57;;;;;;;14.20;13.40;;;12.00;99.90;;;;;;4975308;28;20456;-75
2021/11/01 12:06:44;;;;;;;14.60;14.00;;;12.00;99.90;;;;;;4975350;28;20478;-75
2021/11/01 12:09:15;;;;;;;14.83;14.10;;;12.00;99.90;;;;;;4975173;28;20961;-75
2021/11/01 12:12:18;;;;;;;14.40;13.70;;;12.10;99.90;;;;;;4975342;28;20485;-76
2021/11/01 12:17:48;;;;;;;15.00;14.40;;;12.10;99.90;;;;;;4915280;29;20525;-75
2021/11/01 12:20:16;;;;;;;14.93;13.90;;;12.20;99.90;;;;;;4963042;28;21020;-75
2021/11/01 12:22:47;;;;;;;15.07;14.37;;;12.20;99.90;;;;;;4974808;28;20451;-75
2021/11/01 12:25:19;;;;;;;14.17;13.67;;;12.20;99.90;;;;;;4974972;28;20795;-75
2021/11/01 12:27:59;;;;;;;14.47;13.53;;;12.10;99.90;;;;;;4974610;28;20471;-75
2021/11/01 12:30:34;;;;;;;13.27;12.67;;;12.20;99.90;;;;;;4974743;28;20478;-74
2021/11/01 12:33:04;;;;;;;14.23;13.53;;;12.20;99.90;;;;;;4974028;28;20498;-75
2021/11/01 12:35:32;;;;;;;14.50;13.90;;;12.10;99.90;;;;;;4974536;28;20451;-74
2021/11/01 12:38:06;;;;;;;14.27;13.47;;;12.10;99.90;;;;;;4974776;28;20926;-76
2021/11/01 12:40:43;;;;;;;13.50;13.00;;;12.10;99.90;;;;;;4974797;28;20836;-75
2021/11/01 12:49:45;;;;;;;14.37;13.77;;;12.10;99.90;;;;;;5086439;28;20589;-76
2021/11/01 12:58:00;;;;;;;13.73;13.23;;;12.00;99.90;;;;;;5006377;28;20430;-76
2021/11/01 13:00:38;;;;;;;13.30;12.70;;;12.10;99.90;;;;;;5052957;28;20445;-75
2021/11/01 13:03:11;;;;;;;15.10;14.30;;;12.10;99.90;;;;;;5088708;28;20858;-75
2021/11/01 13:05:44;;;;;;;13.53;12.93;;;12.20;99.90;;;;;;5088312;28;20546;-75
2021/11/01 13:08:13;;;;;;;14.90;14.20;;;12.20;99.90;;;;;;5088179;28;20890;-76
2021/11/01 13:10:43;;;;;;;13.43;12.93;;;12.30;99.90;;;;;;5088216;28;20545;-75
2021/11/01 13:13:38;;;;;;;13.60;12.93;;;12.30;99.90;;;;;;5086309;28;20457;-76
2021/11/01 13:19:07;;;;;;;14.77;14.17;;;12.40;99.90;;;;;;5088078;28;20425;-76
2021/11/01 13:21:41;;;;;;;13.73;13.23;;;12.40;99.90;;;;;;5088028;28;20446;-77
2021/11/01 13:24:11;;;;;;;15.10;14.50;;;12.20;99.90;;;;;;5088033;28;20446;-76
2021/11/01 13:27:08;;;;;;;14.33;13.63;;;12.20;99.90;;;;;;5087916;28;20528;-76
2021/11/01 13:35:26;;;;;;;14.83;14.13;;;12.30;99.90;;;;;;5067376;28;20538;-76
2021/11/01 13:38:01;;;;;;;15.40;14.70;;;12.30;99.90;;;;;;5067373;28;20501;-75
2021/11/01 13:40:34;;;;;;;15.30;14.60;;;12.30;99.90;;;;;;5067303;28;20466;-75
2021/11/01 13:43:01;;;;;;;15.93;15.23;;;12.30;99.90;;;;;;5067094;28;20448;-75
2021/11/01 13:45:27;;;;;;;17.57;16.63;;;12.30;99.90;;;;;;5067092;28;20451;-75
2021/11/01 13:47:57;;;;;;;15.70;15.00;;;12.40;99.90;;;;;;5066836;28;20491;-76
2021/11/01 13:50:26;;;;;;;16.00;15.03;;;12.20;99.90;;;;;;5067054;28;20451;-76
2021/11/01 13:53:01;;;;;;;14.80;14.20;;;12.20;99.90;;;;;;5067103;28;20804;-77
2021/11/01 13:55:41;;;;;;;15.67;14.87;;;12.10;99.90;;;;;;5066961;28;20455;-75
2021/11/01 13:58:19;;;;;;;17.03;16.23;;;12.10;99.90;;;;;;5066966;28;20487;-75
2021/11/01 14:00:53;;;;;;;15.03;14.33;;;12.10;99.90;;;;;;5053443;28;20455;-75
2021/11/01 14:03:41;;;;;;;15.67;14.77;;;12.10;99.90;;;;;;5053816;28;20454;-75
2021/11/01 14:11:48;;;;;;;14.70;14.00;;;12.20;99.90;;;;;;5053482;28;20436;-75
2021/11/01 14:14:30;;;;;;;15.63;14.83;;;12.20;99.90;;;;;;5053309;28;20482;-75
2021/11/01 14:17:02;;;;;;;15.10;14.40;;;12.20;99.90;;;;;;5053283;28;20509;-76
2021/11/01 14:20:00;;;;;;;16.30;15.23;;;12.20;99.90;;;;;;5053284;28;20451;-76
2021/11/01 14:31:08;;;;;;;15.33;14.70;;;12.10;99.90;;;;;;5052497;28;20459;-76
2021/11/01 14:36:53;;;;;;;15.00;14.40;;;12.10;99.90;;;;;;5053018;28;20563;-76
2021/11/01 15:09:52;;;;;;;15.17;14.47;;;12.10;99.90;;;;;;5052256;28;20478;-75
2021/11/01 15:15:15;;;;;;;17.00;15.50;;;12.10;99.90;;;;;;5040907;28;20459;-76
2021/11/01 15:17:57;;;;;;;15.20;14.40;;;12.20;99.90;;;;;;5052191;28;20517;-77
2021/11/01 15:26:12;;;;;;;15.27;14.37;;;12.30;99.90;;;;;;5049872;28;20744;-77
2021/11/01 15:37:23;;;;;;;15.60;14.90;;;12.20;99.90;;;;;;5051799;28;20438;-79
2021/11/01 16:18:12;;;;;;;13.70;13.10;;;11.90;99.90;;;;;;5030785;28;20859;-78
2021/11/01 16:20:42;;;;;;;13.47;12.87;;;11.80;99.90;;;;;;5030755;28;20452;-78
2021/11/01 16:25:55;;;;;;;14.03;13.33;;;11.80;99.90;;;;;;5029021;28;20465;-77
2021/11/01 16:28:22;;;;;;;14.77;13.70;;;11.70;99.90;;;;;;5031056;28;20487;-76
2021/11/01 16:31:01;;;;;;;14.20;13.30;;;11.70;99.90;;;;;;5031033;28;20483;-77
2021/11/01 16:33:34;;;;;;;14.23;13.40;;;11.70;99.90;;;;;;5031002;28;20453;-78
2021/11/01 16:36:08;;;;;;;13.53;12.83;;;11.70;99.90;;;;;;5030824;28;20457;-78
2021/11/01 16:38:43;;;;;;;13.83;13.10;;;11.70;99.90;;;;;;5030961;28;20812;-77
2021/11/01 16:41:10;;;;;;;13.60;12.70;;;11.60;99.90;;;;;;5034070;28;20472;-76
2021/11/01 16:43:37;;;;;;;14.00;13.40;;;11.60;99.90;;;;;;5050756;28;20459;-76
2021/11/01 16:46:04;;;;;;;15.63;14.77;;;11.60;99.90;;;;;;5050760;28;20456;-76
2021/11/01 16:48:32;;;;;;;13.83;13.13;;;11.60;99.90;;;;;;5050301;28;20499;-76
2021/11/01 16:51:00;;;;;;;15.23;14.50;;;11.60;99.90;;;;;;5049702;28;20456;-78
2021/11/01 16:53:29;;;;;;;14.73;14.10;;;11.60;99.90;;;;;;5050461;28;20444;-78
2021/11/01 16:56:09;;;;;;;13.73;13.10;;;11.60;99.90;;;;;;5050534;28;20539;-76
2021/11/01 16:58:43;;;;;;;13.73;13.00;;;11.60;99.90;;;;;;5049930;28;20467;-78
2021/11/01 17:01:14;;;;;;;14.20;13.60;;;11.60;99.90;;;;;;5050639;28;20492;-76
2021/11/01 17:03:44;;;;;;;14.77;13.90;;;11.60;99.90;;;;;;5050425;28;20451;-77
2021/11/01 17:06:24;;;;;;;14.87;14.17;;;11.70;99.90;;;;;;5050026;28;20452;-76
2021/11/01 17:09:15;;;;;;;15.37;14.67;;;11.60;99.90;;;;;;5050779;28;20582;-77
2021/11/01 17:22:48;;;;;;;15.77;14.70;;;11.50;99.90;;;;;;5030506;28;20428;-81
2021/11/01 17:25:20;;;;;;;15.53;14.83;;;11.50;99.90;;;;;;5030544;28;20486;-80
2021/11/01 17:28:12;;;;;;;16.23;15.53;;;11.50;99.90;;;;;;5030280;28;20453;-80
2021/11/01 17:31:14;;;;;;;16.60;15.70;;;11.50;99.90;;;;;;5030274;28;21039;-78
2021/11/01 17:36:49;;;;;;;15.03;14.33;;;11.40;99.90;;;;;;5033944;28;20579;-79
2021/11/01 18:40:39;;;;;;;19.67;18.53;;;10.70;99.90;;;;;;5052365;28;20474;-73
2021/11/01 18:43:23;;;;;;;18.90;17.60;;;10.70;99.90;;;;;;5052754;28;20451;-74
2021/11/01 18:51:49;;;;;;;18.90;17.60;;;10.70;99.90;;;;;;5128805;27;20976;-74
2021/11/01 18:54:18;;;;;;;17.63;16.53;;;10.80;99.90;;;;;;5128615;28;20448;-73
2021/11/01 18:56:47;;;;;;;18.57;17.57;;;10.90;99.90;;;;;;5128560;27;20548;-74
2021/11/01 18:59:14;;;;;;;18.20;17.10;;;10.90;99.90;;;;;;5128489;27;20448;-73
2021/11/01 19:01:44;;;;;;;18.00;16.90;;;10.90;99.90;;;;;;5128547;27;20445;-73
2021/11/01 19:04:15;;;;;;;17.90;16.80;;;10.80;99.90;;;;;;5128442;27;20444;-73
2021/11/01 19:06:51;;;;;;;18.50;17.30;;;10.70;99.90;;;;;;5128494;27;20448;-74
2021/11/01 19:09:30;;;;;;;18.27;16.90;;;10.60;99.90;;;;;;5128276;27;20941;-72
2021/11/01 20:04:41;;;;;;;11.73;11.20;;;9.70;99.90;;;;;;5093199;28;20448;-73
2021/11/01 20:10:28;;;;;;;13.97;13.37;;;9.50;99.90;;;;;;5083735;28;20429;-73
2021/11/01 20:13:13;;;;;;;14.20;13.60;;;9.30;99.90;;;;;;5093118;28;20453;-73
2021/11/01 21:25:43;;;;;;;14.30;13.60;;;8.70;99.90;;;;;;5091515;28;20740;-73
2021/11/01 21:28:09;;;;;;;13.37;12.57;;;8.70;99.90;;;;;;5091344;28;20485;-72
2021/11/01 21:30:36;;;;;;;12.30;11.70;;;8.80;99.90;;;;;;5091354;28;20888;-72
2021/11/01 21:33:04;;;;;;;13.10;12.50;;;8.90;99.90;;;;;;5091537;28;20967;-72
2021/11/01 21:35:40;;;;;;;13.10;12.40;;;8.90;99.90;;;;;;5091113;28;20446;-72
2021/11/01 21:38:07;;;;;;;13.40;12.83;;;9.00;99.90;;;;;;5091529;28;20446;-72
2021/11/01 21:40:34;;;;;;;13.43;12.70;;;9.00;99.90;;;;;;5091288;28;20461;-73
2021/11/01 21:43:00;;;;;;;14.10;13.10;;;8.90;99.90;;;;;;5091296;28;20458;-73
2021/11/01 21:45:27;;;;;;;15.60;14.80;;;8.90;99.90;;;;;;5090954;28;20462;-73